createdAt,value
2023-01-30T00:04:48.564Z,101867.38
2023-01-30T00:10:35.645Z,101874.50
2023-01-30T00:16:22.449Z,101878.84
2023-01-30T00:22:09.095Z,101872.06
2023-01-30T00:27:57.111Z,101870.22
2023-01-30T00:33:43.960Z,101877.97
2023-01-30T00:39:30.684Z,101866.75
2023-01-30T00:45:36.037Z,101868.00
2023-01-30T00:51:23.075Z,101884.94
2023-01-30T00:57:09.843Z,101881.81
2023-01-30T01:02:56.820Z,101895.38
2023-01-30T01:08:44.803Z,101879.78
2023-01-30T01:14:31.671Z,101858.44
2023-01-30T01:20:19.963Z,101843.19
2023-01-30T01:26:07.073Z,101837.31
2023-01-30T01:31:54.787Z,101846.16
2023-01-30T01:37:42.913Z,101829.94
2023-01-30T01:43:36.192Z,101825.69
2023-01-30T01:49:27.987Z,101822.81
2023-01-30T01:55:16.266Z,101816.50
2023-01-30T02:01:03.735Z,101799.06
2023-01-30T02:06:50.608Z,101803.81
2023-01-30T02:12:39.352Z,101806.06
2023-01-30T02:18:27.491Z,101803.13
2023-01-30T02:24:17.011Z,101811.81
2023-01-30T02:30:04.176Z,101806.53
2023-01-30T02:36:18.354Z,101791.56
2023-01-30T02:42:35.017Z,101809.78
2023-01-30T02:48:35.057Z,101815.81
2023-01-30T02:54:21.951Z,101799.88
2023-01-30T03:00:10.159Z,101826.19
2023-01-30T03:06:35.066Z,101843.13
2023-01-30T03:13:11.678Z,101838.34
2023-01-30T03:19:03.681Z,101836.38
2023-01-30T03:24:53.728Z,101834.94
2023-01-30T03:30:40.676Z,101838.44
2023-01-30T03:36:29.793Z,101853.19
2023-01-30T03:42:16.701Z,101850.22
2023-01-30T03:48:03.812Z,101855.06
2023-01-30T03:53:51.288Z,101856.59
2023-01-30T03:59:38.069Z,101851.91
2023-01-30T04:05:28.589Z,101850.56
2023-01-30T04:11:22.872Z,101849.41
2023-01-30T04:17:09.718Z,101855.84
2023-01-30T04:23:02.456Z,101857.47
2023-01-30T04:28:50.581Z,101865.50
2023-01-30T04:34:37.875Z,101859.84
2023-01-30T04:40:25.759Z,101874.22
2023-01-30T04:46:15.142Z,101871.75
2023-01-30T04:52:02.885Z,101877.25
2023-01-30T04:57:49.664Z,101887.69
2023-01-30T05:03:36.547Z,101894.91
2023-01-30T05:09:23.451Z,101912.03
2023-01-30T05:15:11.752Z,101919.06
2023-01-30T05:21:12.913Z,101912.63
2023-01-30T05:26:59.679Z,101918.47
2023-01-30T05:32:48.773Z,101912.16
2023-01-30T05:38:38.959Z,101921.47
2023-01-30T05:44:26.094Z,101925.94
2023-01-30T05:50:20.999Z,101909.03
2023-01-30T05:56:09.613Z,101921.31
2023-01-30T06:01:56.579Z,101902.97
2023-01-30T06:07:49.551Z,101910.53
2023-01-30T06:13:37.224Z,101930.28
2023-01-30T06:19:23.958Z,101945.78
2023-01-30T06:25:13.442Z,101956.13
2023-01-30T06:31:00.338Z,101947.41
2023-01-30T06:36:49.806Z,101952.56
2023-01-30T06:42:36.643Z,101980.78
2023-01-30T06:48:23.425Z,101985.56
2023-01-30T06:54:10.397Z,102000.63
2023-01-30T06:59:58.566Z,101992.81
2023-01-30T07:05:47.329Z,101991.78
2023-01-30T07:11:34.025Z,101977.47
2023-01-30T07:17:21.872Z,102005.34
2023-01-30T07:23:26.162Z,102009.25
2023-01-30T07:29:13.043Z,102007.84
2023-01-30T07:34:59.741Z,102038.19
2023-01-30T07:40:46.581Z,102052.09
2023-01-30T07:46:35.303Z,102055.16
2023-01-30T07:52:24.215Z,102049.09
2023-01-30T07:58:15.701Z,102052.00
2023-01-30T08:04:09.743Z,102061.03
2023-01-30T08:09:56.770Z,102074.00
2023-01-30T08:15:43.767Z,102066.75
2023-01-30T08:21:30.514Z,102046.66
2023-01-30T08:27:17.306Z,102041.25
2023-01-30T08:33:04.348Z,102059.91
2023-01-30T08:38:51.344Z,102083.66
2023-01-30T08:44:38.417Z,102086.81
2023-01-30T08:50:25.363Z,102103.78
2023-01-30T08:56:12.324Z,102126.88
2023-01-30T09:01:59.071Z,102126.84
2023-01-30T09:07:45.850Z,102117.50
2023-01-30T09:13:36.192Z,102106.97
2023-01-30T09:19:29.425Z,102117.28
2023-01-30T09:25:16.346Z,102112.31
2023-01-30T09:31:06.415Z,102113.56
2023-01-30T09:37:00.526Z,102127.50
2023-01-30T09:42:54.539Z,102137.00
2023-01-30T09:49:22.875Z,102141.75
2023-01-30T09:55:18.497Z,102136.81
2023-01-30T10:01:13.790Z,102132.22
2023-01-30T10:07:21.976Z,102155.56
2023-01-30T10:13:23.819Z,102154.88
2023-01-30T10:19:35.568Z,102143.47
2023-01-30T10:25:35.448Z,102163.38
2023-01-30T10:31:27.107Z,102160.38
2023-01-30T10:37:22.048Z,102162.88
2023-01-30T10:43:34.696Z,102155.53
2023-01-30T10:49:24.383Z,102179.06
2023-01-30T10:55:36.315Z,102180.16
2023-01-30T11:01:26.320Z,102160.09
2023-01-30T11:07:13.919Z,102173.28
2023-01-30T11:13:22.574Z,102170.47
2023-01-30T11:19:25.736Z,102159.13
2023-01-30T11:25:20.146Z,102174.53
2023-01-30T11:31:25.499Z,102180.75
2023-01-30T11:37:33.281Z,102168.31
2023-01-30T11:43:27.280Z,102179.34
2023-01-30T11:49:46.351Z,102161.66
2023-01-30T11:55:25.997Z,102172.25
2023-01-30T12:01:14.967Z,102166.97
2023-01-30T12:07:23.069Z,102169.16
2023-01-30T12:13:22.638Z,102168.72
2023-01-30T12:19:26.401Z,102164.94
2023-01-30T12:25:22.383Z,102179.72
2023-01-30T12:31:31.383Z,102179.91
2023-01-30T12:37:43.102Z,102194.41
2023-01-30T12:43:42.094Z,102173.31
2023-01-30T12:50:00.625Z,102190.19
2023-01-30T12:56:06.267Z,102173.22
2023-01-30T13:02:27.217Z,102187.69
2023-01-30T13:08:52.840Z,102168.00
2023-01-30T13:15:00.199Z,102173.81
2023-01-30T13:20:51.408Z,102171.00
2023-01-30T13:26:41.014Z,102168.31
2023-01-30T13:32:43.688Z,102174.44
2023-01-30T13:38:32.015Z,102164.63
2023-01-30T13:44:23.307Z,102157.63
2023-01-30T13:50:31.940Z,102148.47
2023-01-30T13:56:41.252Z,102166.78
2023-01-30T14:02:29.263Z,102177.22
2023-01-30T14:08:22.197Z,102190.88
2023-01-30T14:14:18.186Z,102172.94
2023-01-30T14:20:17.570Z,102164.44
2023-01-30T14:26:04.562Z,102162.44
2023-01-30T14:31:52.091Z,102169.13
2023-01-30T14:37:39.015Z,102167.28
2023-01-30T14:43:52.341Z,102161.28
2023-01-30T14:49:43.922Z,102180.16
2023-01-30T15:03:36.548Z,102210.13
2023-01-30T15:09:28.470Z,102220.16
2023-01-30T15:15:33.761Z,102204.28
2023-01-30T15:21:40.609Z,102216.16
2023-01-30T15:27:58.281Z,102223.41
2023-01-30T15:33:52.836Z,102227.75
2023-01-30T15:39:40.212Z,102227.22
2023-01-30T15:45:44.231Z,102251.66
2023-01-30T15:51:33.400Z,102259.16
2023-01-30T15:57:35.690Z,102273.31
2023-01-30T16:03:26.851Z,102275.59
2023-01-30T16:09:22.680Z,102291.19
2023-01-30T16:21:54.715Z,102310.03
2023-01-30T16:27:48.657Z,102312.03
2023-01-30T16:34:22.375Z,102317.09
2023-01-30T16:40:50.112Z,102324.44
2023-01-30T16:46:56.183Z,102336.66
2023-01-30T16:52:51.195Z,102341.03
2023-01-30T16:59:42.391Z,102348.94
2023-01-30T17:05:31.605Z,102355.09
2023-01-30T17:11:39.811Z,102360.03
2023-01-30T17:17:27.747Z,102368.31
2023-01-30T17:23:20.995Z,102350.78
2023-01-30T17:29:23.318Z,102362.41
2023-01-30T17:35:18.895Z,102387.22
2023-01-30T17:41:08.190Z,102384.28
2023-01-30T17:46:54.885Z,102387.44
2023-01-30T17:52:46.600Z,102383.00
2023-01-30T17:58:33.780Z,102387.16
2023-01-30T18:05:14.799Z,102392.47
2023-01-30T18:10:53.347Z,102390.69
2023-01-30T18:17:00.261Z,102405.78
2023-01-30T18:22:49.431Z,102436.44
2023-01-30T18:28:37.561Z,102428.41
2023-01-30T18:34:24.198Z,102433.72
2023-01-30T18:40:14.180Z,102425.44
2023-01-30T18:46:12.600Z,102411.84
2023-01-30T18:51:59.620Z,102423.41
2023-01-30T18:57:46.744Z,102423.75
2023-01-30T19:03:33.612Z,102440.78
2023-01-30T19:09:21.575Z,102421.31
2023-01-30T19:15:08.631Z,102427.03
2023-01-30T19:20:58.852Z,102425.81
2023-01-30T19:26:46.181Z,102426.19
2023-01-30T19:32:45.764Z,102414.88
2023-01-30T19:38:42.148Z,102443.88
2023-01-30T19:44:30.200Z,102443.47
2023-01-30T19:50:22.853Z,102463.47
2023-01-30T19:56:12.716Z,102467.69
2023-01-30T20:02:01.505Z,102469.16
2023-01-30T20:07:49.894Z,102462.28
2023-01-30T20:13:38.417Z,102468.56
2023-01-30T20:19:28.954Z,102472.59
2023-01-30T20:25:17.352Z,102475.16
2023-01-30T20:31:21.992Z,102468.13
2023-01-30T20:37:09.048Z,102451.13
2023-01-30T20:42:56.804Z,102452.91
2023-01-30T20:48:44.818Z,102464.06
2023-01-30T20:54:32.271Z,102456.75
2023-01-30T21:00:19.640Z,102452.06
2023-01-30T21:06:07.066Z,102454.13
2023-01-30T21:11:55.357Z,102445.59
2023-01-30T21:17:42.290Z,102443.75
2023-01-30T21:23:30.156Z,102441.91
2023-01-30T21:29:19.501Z,102440.09
2023-01-30T21:35:06.581Z,102445.16
2023-01-30T21:41:12.204Z,102448.81
2023-01-30T21:46:59.348Z,102448.34
2023-01-30T21:52:46.071Z,102446.41
2023-01-30T21:58:38.819Z,102449.19
2023-01-30T22:04:26.323Z,102439.09
2023-01-30T22:10:13.050Z,102426.28
2023-01-30T22:16:12.037Z,102430.28
2023-01-30T22:22:01.644Z,102444.69
2023-01-30T22:27:48.665Z,102437.66
2023-01-30T22:33:36.417Z,102449.53
2023-01-30T22:39:23.580Z,102452.44
2023-01-30T22:45:11.676Z,102444.84
2023-01-30T22:51:24.827Z,102460.41
2023-01-30T22:57:11.451Z,102447.66
2023-01-30T23:02:58.115Z,102435.00
2023-01-30T23:08:47.317Z,102432.50
2023-01-30T23:14:34.348Z,102441.16
2023-01-30T23:20:21.039Z,102417.72
2023-01-30T23:26:08.085Z,102422.06
2023-01-30T23:31:54.757Z,102407.28
2023-01-30T23:38:00.214Z,102405.09
2023-01-30T23:43:50.709Z,102395.00
2023-01-30T23:49:37.867Z,102376.44
2023-01-30T23:55:25.544Z,102364.47
